Time;durP1;ratioP1;P1;durP2;ratioP2;P2;SDS_P1;SDS_P2;PMS_P1;PMS_P2;Temp;Humidity;BMP_temperature;BMP_pressure;BME280_temperature;BME280_humidity;BME280_pressure;Samples;Min_cycle;Max_cycle;Signal;HPM_P1;HPM_P2
2021/04/27 00:00:08;;;;;;;10.00;7.57;;;16.00;96.70;;;;;;4967251;28;20474;-76
2021/04/27 00:02:36;;;;;;;10.70;6.93;;;16.00;96.70;;;;;;4983567;28;20046;-76
2021/04/27 00:05:06;;;;;;;7.75;6.57;;;15.90;96.70;;;;;;4967333;28;20042;-77
2021/04/27 00:07:35;;;;;;;8.00;7.20;;;15.80;96.70;;;;;;4966301;28;20038;-77
2021/04/27 00:10:05;;;;;;;7.32;6.35;;;15.90;96.70;;;;;;4981492;28;20070;-76
2021/04/27 00:12:34;;;;;;;8.65;6.75;;;15.90;96.70;;;;;;4982554;28;20038;-76
2021/04/27 00:15:03;;;;;;;7.22;6.30;;;15.90;96.70;;;;;;4967316;28;20046;-76
2021/04/27 00:17:31;;;;;;;8.10;6.75;;;15.90;96.70;;;;;;4965773;28;20034;-76
2021/04/27 00:19:59;;;;;;;7.53;6.75;;;15.90;96.70;;;;;;4951763;28;20042;-76
2021/04/27 00:22:26;;;;;;;7.47;6.43;;;15.90;96.70;;;;;;4964294;28;20049;-76
2021/04/27 00:24:56;;;;;;;7.50;6.53;;;16.00;96.70;;;;;;5002404;23;20483;-74
2021/04/27 00:27:24;;;;;;;11.25;7.97;;;16.00;96.70;;;;;;4946016;28;20054;-75
2021/04/27 00:29:52;;;;;;;8.15;7.13;;;16.00;96.70;;;;;;4960385;28;20408;-75
2021/04/27 00:32:20;;;;;;;9.68;7.25;;;16.10;96.70;;;;;;4940404;28;20042;-75
2021/04/27 00:34:48;;;;;;;8.13;7.03;;;15.90;96.70;;;;;;4963441;28;20046;-75
2021/04/27 00:37:15;;;;;;;9.07;6.93;;;16.00;96.70;;;;;;4957808;28;20043;-75
2021/04/27 00:39:43;;;;;;;9.35;7.40;;;16.00;96.70;;;;;;4967848;28;20069;-75
2021/04/27 00:42:12;;;;;;;7.40;6.63;;;16.10;96.70;;;;;;4959824;28;20456;-75
2021/04/27 00:44:40;;;;;;;9.88;7.05;;;16.00;96.70;;;;;;4961424;28;20066;-75
2021/04/27 00:47:08;;;;;;;9.13;7.13;;;15.90;96.70;;;;;;4961262;28;20043;-75
2021/04/27 00:49:36;;;;;;;6.43;5.82;;;15.90;96.70;;;;;;4960493;28;20502;-75
2021/04/27 00:52:04;;;;;;;7.47;6.57;;;16.00;96.70;;;;;;4944936;28;20051;-75
2021/04/27 00:54:32;;;;;;;7.85;6.85;;;16.00;96.70;;;;;;4957920;28;20045;-75
2021/04/27 00:57:00;;;;;;;7.70;6.88;;;16.00;96.70;;;;;;4944874;28;20039;-75
2021/04/27 00:59:29;;;;;;;7.63;6.78;;;15.90;96.70;;;;;;4950875;28;20042;-75
2021/04/27 01:01:57;;;;;;;9.38;7.10;;;15.90;96.70;;;;;;4947497;28;20525;-75
2021/04/27 01:04:25;;;;;;;8.23;6.55;;;16.00;96.70;;;;;;4946211;28;20039;-75
2021/04/27 01:06:53;;;;;;;7.72;6.97;;;15.90;96.70;;;;;;4946896;28;20069;-75
2021/04/27 01:09:26;;;;;;;7.45;6.72;;;15.80;96.70;;;;;;4948252;28;20645;-75
2021/04/27 01:12:00;;;;;;;8.23;6.70;;;15.70;96.70;;;;;;4957476;28;20050;-75
2021/04/27 01:14:34;;;;;;;8.52;7.25;;;15.80;96.70;;;;;;4946917;23;20047;-75
2021/04/27 01:17:06;;;;;;;8.35;6.82;;;15.80;96.70;;;;;;4960175;28;20062;-76
2021/04/27 01:20:00;;;;;;;8.07;6.97;;;15.80;96.70;;;;;;4946258;28;20110;-76
2021/04/27 01:22:41;;;;;;;8.68;7.45;;;15.90;96.70;;;;;;4977292;28;20507;-76
2021/04/27 01:25:11;;;;;;;8.48;7.15;;;15.90;96.70;;;;;;4945949;28;20057;-76
2021/04/27 01:27:40;;;;;;;6.95;6.35;;;15.90;96.70;;;;;;4963179;28;20051;-75
2021/04/27 01:30:10;;;;;;;8.98;7.50;;;16.00;96.70;;;;;;4958968;28;20053;-75
2021/04/27 01:32:38;;;;;;;7.35;6.63;;;15.90;96.70;;;;;;4964040;28;20050;-75
2021/04/27 01:35:08;;;;;;;8.35;7.03;;;15.90;96.70;;;;;;4962500;28;20186;-75
2021/04/27 01:37:51;;;;;;;8.40;7.60;;;15.70;96.70;;;;;;4950261;28;20053;-76
2021/04/27 01:40:19;;;;;;;7.93;7.13;;;15.40;96.70;;;;;;4961535;28;20433;-76
2021/04/27 01:42:48;;;;;;;8.00;6.75;;;15.30;96.70;;;;;;4960557;28;20047;-76
2021/04/27 01:45:18;;;;;;;8.32;6.47;;;15.20;96.70;;;;;;4962450;28;20053;-76
2021/04/27 01:47:47;;;;;;;8.93;6.47;;;15.30;96.70;;;;;;4943976;28;20492;-75
2021/04/27 01:50:15;;;;;;;9.48;7.57;;;15.30;96.70;;;;;;4945695;28;20058;-75
2021/04/27 01:53:13;;;;;;;8.00;7.25;;;15.30;96.70;;;;;;4901003;28;20055;-75
2021/04/27 01:55:43;;;;;;;7.90;7.10;;;15.50;96.70;;;;;;4959945;28;20077;-76
2021/04/27 01:58:12;;;;;;;8.07;6.65;;;15.60;96.70;;;;;;4960673;28;20128;-76
2021/04/27 02:00:40;;;;;;;8.32;7.25;;;15.60;96.70;;;;;;4958398;28;20603;-76
2021/04/27 02:03:08;;;;;;;7.53;6.82;;;15.70;96.70;;;;;;4959991;28;20039;-76
2021/04/27 02:05:37;;;;;;;7.70;6.60;;;15.70;96.70;;;;;;4960219;28;20055;-76
2021/04/27 02:08:21;;;;;;;7.30;6.60;;;15.70;96.70;;;;;;4958658;28;20495;-76
2021/04/27 02:10:52;;;;;;;8.07;7.28;;;15.60;96.70;;;;;;4963346;28;20047;-76
2021/04/27 02:13:22;;;;;;;8.40;6.80;;;15.60;96.70;;;;;;4957666;28;20090;-75
2021/04/27 02:16:02;;;;;;;8.25;7.28;;;15.70;96.70;;;;;;4960186;28;20065;-75
2021/04/27 02:18:35;;;;;;;7.93;6.72;;;15.70;96.70;;;;;;4944476;28;20531;-76
2021/04/27 02:21:10;;;;;;;8.02;7.00;;;15.60;96.70;;;;;;4945421;28;20043;-75
2021/04/27 02:23:56;;;;;;;7.22;6.53;;;15.70;96.70;;;;;;4965419;28;20078;-76
2021/04/27 02:26:29;;;;;;;8.07;6.47;;;15.70;96.70;;;;;;4958602;28;20050;-76
2021/04/27 02:29:08;;;;;;;7.65;6.93;;;15.70;96.70;;;;;;4973643;28;20049;-76
2021/04/27 02:31:38;;;;;;;8.07;7.22;;;15.70;96.70;;;;;;4960166;28;20129;-76
2021/04/27 02:34:07;;;;;;;8.10;6.70;;;15.70;96.70;;;;;;4957346;28;20408;-76
2021/04/27 02:36:40;;;;;;;9.68;7.72;;;15.70;96.70;;;;;;4961391;28;20439;-75
2021/04/27 02:39:21;;;;;;;7.78;6.95;;;15.70;96.70;;;;;;4958794;28;20366;-76
2021/04/27 02:41:50;;;;;;;7.80;7.03;;;15.70;96.70;;;;;;4959856;28;20055;-76
2021/04/27 02:44:38;;;;;;;7.00;6.30;;;15.70;96.70;;;;;;4958658;28;20105;-76
2021/04/27 02:47:06;;;;;;;9.88;7.00;;;15.70;96.70;;;;;;4955072;28;20097;-76
2021/04/27 02:49:35;;;;;;;9.90;6.90;;;15.70;96.70;;;;;;4958984;28;20186;-76
2021/04/27 02:52:09;;;;;;;8.35;6.13;;;15.80;96.70;;;;;;4958022;28;20053;-76
2021/04/27 02:54:49;;;;;;;8.23;6.43;;;15.80;96.70;;;;;;4960648;28;20130;-76
2021/04/27 02:57:17;;;;;;;6.78;5.75;;;15.80;96.70;;;;;;4958797;28;20061;-76
2021/04/27 02:59:46;;;;;;;7.10;6.40;;;15.70;96.70;;;;;;4957997;28;20035;-75
2021/04/27 03:02:14;;;;;;;6.80;5.97;;;15.70;96.70;;;;;;4962099;28;20145;-76
2021/04/27 03:04:42;;;;;;;7.10;6.00;;;15.70;96.70;;;;;;4974157;28;20065;-76
2021/04/27 03:07:12;;;;;;;6.32;5.13;;;15.70;96.70;;;;;;4966211;28;20507;-76
2021/04/27 03:09:44;;;;;;;6.20;5.20;;;15.70;96.70;;;;;;4950653;28;20042;-76
2021/04/27 03:12:13;;;;;;;6.35;4.88;;;15.70;96.70;;;;;;4965559;28;20039;-76
2021/04/27 03:14:42;;;;;;;5.65;4.28;;;15.60;96.70;;;;;;4961842;28;20058;-75
2021/04/27 03:17:12;;;;;;;6.72;4.95;;;15.70;96.70;;;;;;4945487;28;20046;-75
2021/04/27 03:19:51;;;;;;;5.55;5.05;;;15.70;96.70;;;;;;4961831;28;20352;-76
2021/04/27 03:22:25;;;;;;;7.25;5.97;;;15.60;96.70;;;;;;4964559;28;20134;-76
2021/04/27 03:24:53;;;;;;;7.25;5.38;;;15.70;96.70;;;;;;4966866;28;20469;-76
2021/04/27 03:27:21;;;;;;;5.32;4.68;;;15.70;96.70;;;;;;4963917;28;20460;-76
2021/04/27 03:30:09;;;;;;;6.43;5.03;;;15.70;96.70;;;;;;4962853;28;20046;-76
2021/04/27 03:32:40;;;;;;;5.60;4.75;;;15.60;96.70;;;;;;4981889;28;20408;-75
2021/04/27 03:35:11;;;;;;;5.93;5.32;;;15.50;96.70;;;;;;4965588;28;20046;-76
2021/04/27 03:37:41;;;;;;;5.40;4.90;;;15.40;96.70;;;;;;4965968;28;20564;-76
2021/04/27 03:40:12;;;;;;;6.53;5.38;;;15.50;96.70;;;;;;4962032;28;20042;-76
2021/04/27 03:42:41;;;;;;;6.10;5.13;;;15.40;96.70;;;;;;4952590;28;20081;-76
2021/04/27 03:45:12;;;;;;;6.22;5.43;;;15.30;96.70;;;;;;4969451;28;20047;-75
2021/04/27 03:47:42;;;;;;;5.72;4.95;;;15.30;96.70;;;;;;4965615;28;20043;-75
2021/04/27 03:50:14;;;;;;;5.85;5.30;;;15.30;96.70;;;;;;4966896;28;20070;-76
2021/04/27 03:52:52;;;;;;;5.70;5.10;;;15.30;96.70;;;;;;4945528;28;20050;-76
2021/04/27 03:55:20;;;;;;;5.80;5.05;;;15.30;96.70;;;;;;4964644;28;20054;-76
2021/04/27 03:57:48;;;;;;;5.43;4.93;;;15.20;96.70;;;;;;4966413;28;20074;-76
2021/04/27 04:00:17;;;;;;;6.43;4.43;;;15.20;96.70;;;;;;4948561;28;20047;-76
2021/04/27 04:02:50;;;;;;;6.25;4.97;;;15.30;96.70;;;;;;4949139;28;20039;-76
2021/04/27 04:05:18;;;;;;;5.65;4.70;;;15.20;96.70;;;;;;4964741;28;20054;-76
2021/04/27 04:07:46;;;;;;;5.82;4.65;;;15.30;96.70;;;;;;4958423;28;20765;-76
2021/04/27 04:10:22;;;;;;;7.07;4.60;;;15.40;96.70;;;;;;4967527;28;20031;-76
2021/04/27 04:12:51;;;;;;;5.97;4.57;;;15.40;96.70;;;;;;4963179;28;20062;-76
2021/04/27 04:15:20;;;;;;;5.35;4.65;;;15.30;96.70;;;;;;4960684;28;20535;-76
2021/04/27 04:17:52;;;;;;;7.70;5.28;;;15.30;96.70;;;;;;4947445;28;20046;-76
2021/04/27 04:20:22;;;;;;;6.57;5.25;;;15.30;96.70;;;;;;4964249;28;20051;-76
2021/04/27 04:23:10;;;;;;;4.70;4.30;;;15.20;96.70;;;;;;4966972;28;20061;-76
2021/04/27 04:25:38;;;;;;;6.35;5.63;;;15.30;96.70;;;;;;4963846;28;20097;-76
2021/04/27 04:28:06;;;;;;;6.60;5.53;;;15.40;96.70;;;;;;4966463;28;20038;-76
2021/04/27 04:30:35;;;;;;;6.88;5.53;;;15.40;96.70;;;;;;4962661;28;20111;-76
2021/04/27 04:33:22;;;;;;;7.07;6.23;;;15.40;96.70;;;;;;4966630;28;20417;-76
2021/04/27 04:36:10;;;;;;;7.25;5.65;;;15.30;96.70;;;;;;4926319;28;20105;-76
2021/04/27 04:39:08;;;;;;;7.75;6.57;;;15.30;96.70;;;;;;4925613;28;20186;-76
2021/04/27 04:41:54;;;;;;;8.18;6.18;;;15.30;96.70;;;;;;4956703;28;20046;-76
2021/04/27 04:44:40;;;;;;;6.85;6.15;;;15.30;96.70;;;;;;4965183;28;20054;-76
2021/04/27 04:47:27;;;;;;;7.53;6.75;;;15.30;96.70;;;;;;4959470;28;20063;-76
2021/04/27 04:50:16;;;;;;;8.00;7.03;;;15.30;96.70;;;;;;4962897;28;21394;-76
2021/04/27 04:53:10;;;;;;;7.30;6.55;;;15.30;96.70;;;;;;4906043;29;20195;-76
2021/04/27 04:55:43;;;;;;;6.47;5.70;;;15.40;96.70;;;;;;4891290;29;20494;-76
2021/04/27 04:58:24;;;;;;;8.32;6.50;;;15.40;96.70;;;;;;4891303;29;20146;-76
2021/04/27 05:00:56;;;;;;;9.43;6.93;;;15.40;96.70;;;;;;4888211;29;20045;-76
2021/04/27 05:03:33;;;;;;;8.25;5.70;;;15.40;96.70;;;;;;4903136;29;20609;-76
2021/04/27 05:06:21;;;;;;;6.50;5.70;;;15.50;96.70;;;;;;4907739;29;20466;-76
2021/04/27 05:09:08;;;;;;;6.60;4.68;;;15.40;96.70;;;;;;4909044;29;20063;-76
2021/04/27 05:11:42;;;;;;;4.57;4.05;;;15.40;96.70;;;;;;4907381;29;20567;-76
2021/04/27 05:14:30;;;;;;;4.55;3.85;;;15.50;96.70;;;;;;4906270;29;20059;-76
2021/04/27 05:16:59;;;;;;;4.35;3.03;;;15.50;96.70;;;;;;4914366;29;20454;-75
2021/04/27 05:19:27;;;;;;;3.63;3.28;;;15.50;96.70;;;;;;4891220;29;20529;-76
2021/04/27 05:21:56;;;;;;;3.90;2.80;;;15.60;96.70;;;;;;4895030;29;20079;-76
2021/04/27 05:24:25;;;;;;;3.03;2.67;;;15.70;96.70;;;;;;4904662;29;20076;-76
2021/04/27 05:26:57;;;;;;;3.78;2.50;;;15.70;96.70;;;;;;4904861;29;20105;-76
2021/04/27 05:29:25;;;;;;;3.70;2.88;;;15.70;96.70;;;;;;4917221;28;20050;-76
2021/04/27 05:31:53;;;;;;;3.60;2.67;;;15.70;96.70;;;;;;4946352;28;20047;-76
2021/04/27 05:34:21;;;;;;;5.65;2.90;;;15.70;96.70;;;;;;4946916;28;20038;-75
2021/04/27 05:36:49;;;;;;;3.33;2.75;;;15.70;96.70;;;;;;4964346;28;20065;-76
2021/04/27 05:39:18;;;;;;;3.83;2.88;;;15.70;96.70;;;;;;4960486;28;20042;-75
2021/04/27 05:41:49;;;;;;;3.70;3.10;;;15.70;96.70;;;;;;4961770;28;20061;-76
2021/04/27 05:44:20;;;;;;;5.85;2.85;;;15.70;96.70;;;;;;4962257;28;20113;-76
2021/04/27 05:46:48;;;;;;;3.30;3.00;;;15.70;96.70;;;;;;4962408;28;20046;-76
2021/04/27 05:49:16;;;;;;;5.90;3.00;;;15.70;96.70;;;;;;4963500;28;20052;-76
2021/04/27 05:51:45;;;;;;;3.97;3.42;;;15.70;96.70;;;;;;4960665;28;20057;-75
2021/04/27 05:54:13;;;;;;;4.45;2.60;;;15.80;96.70;;;;;;4968124;28;20492;-76
2021/04/27 05:56:42;;;;;;;3.60;2.80;;;15.80;96.70;;;;;;4962491;28;20055;-76
2021/04/27 05:59:11;;;;;;;3.08;2.78;;;15.80;96.70;;;;;;4963289;28;20049;-76
2021/04/27 06:01:39;;;;;;;4.65;2.78;;;15.90;96.70;;;;;;4964342;28;20490;-74
2021/04/27 06:04:08;;;;;;;4.10;2.83;;;16.00;96.70;;;;;;4964856;28;20038;-77
2021/04/27 06:06:37;;;;;;;5.25;2.92;;;16.10;96.70;;;;;;4961273;28;20046;-77
2021/04/27 06:09:07;;;;;;;4.60;2.72;;;16.10;96.70;;;;;;4964679;28;21506;-77
2021/04/27 06:11:35;;;;;;;3.63;2.60;;;16.10;96.70;;;;;;4958772;28;20055;-80
2021/04/27 06:14:05;;;;;;;3.58;2.53;;;16.10;96.70;;;;;;4964373;28;20039;-80
2021/04/27 06:16:33;;;;;;;3.33;2.47;;;16.10;96.70;;;;;;4986252;28;20042;-79
2021/04/27 06:19:01;;;;;;;6.68;3.42;;;16.10;96.70;;;;;;4983227;28;20038;-79
2021/04/27 06:21:30;;;;;;;4.72;2.83;;;16.10;96.70;;;;;;4980838;28;20068;-77
2021/04/27 06:23:58;;;;;;;4.07;2.65;;;16.10;96.70;;;;;;4980029;28;20481;-77
2021/04/27 06:26:27;;;;;;;3.70;2.75;;;16.10;96.70;;;;;;4964280;28;20046;-78
2021/04/27 06:28:55;;;;;;;4.30;2.42;;;16.20;96.70;;;;;;4964499;28;20046;-79
2021/04/27 06:31:25;;;;;;;5.60;2.58;;;16.30;96.70;;;;;;4965714;28;20097;-77
2021/04/27 06:33:53;;;;;;;9.38;4.07;;;16.30;96.70;;;;;;4964193;28;20046;-78
2021/04/27 06:36:22;;;;;;;3.13;2.22;;;16.30;96.70;;;;;;4964184;28;20046;-78
2021/04/27 06:38:51;;;;;;;2.72;2.53;;;16.20;96.70;;;;;;4958851;28;20562;-78
2021/04/27 06:41:21;;;;;;;3.08;2.22;;;16.10;96.70;;;;;;4978480;28;20860;-78
2021/04/27 06:43:50;;;;;;;3.55;2.45;;;16.10;96.70;;;;;;4950027;28;20058;-78
2021/04/27 06:46:19;;;;;;;2.75;2.05;;;16.00;96.70;;;;;;4962757;28;20156;-77
2021/04/27 06:48:48;;;;;;;2.50;2.30;;;16.10;96.70;;;;;;4980397;28;20512;-77
2021/04/27 06:51:18;;;;;;;2.63;2.40;;;15.90;96.70;;;;;;4950644;28;20041;-77
2021/04/27 06:53:47;;;;;;;3.63;2.38;;;16.00;96.70;;;;;;4979199;28;20048;-78
2021/04/27 06:56:16;;;;;;;2.25;1.92;;;16.10;96.70;;;;;;4979766;28;20050;-78
2021/04/27 06:58:44;;;;;;;2.50;2.30;;;16.20;96.70;;;;;;4985235;28;20048;-78
2021/04/27 07:01:13;;;;;;;3.00;2.03;;;16.20;96.70;;;;;;4978456;28;20050;-78
2021/04/27 07:03:47;;;;;;;6.13;2.40;;;16.20;96.70;;;;;;4981347;28;20066;-79
2021/04/27 07:06:16;;;;;;;3.42;2.33;;;16.30;96.70;;;;;;4981599;28;20500;-78
2021/04/27 07:08:45;;;;;;;3.75;2.20;;;16.30;96.70;;;;;;4963717;28;20042;-76
2021/04/27 07:11:13;;;;;;;2.67;2.10;;;16.40;96.70;;;;;;4983917;28;20049;-77
2021/04/27 07:13:41;;;;;;;3.35;2.25;;;16.40;96.70;;;;;;4963916;28;20061;-77
2021/04/27 07:16:09;;;;;;;2.42;1.88;;;16.40;96.70;;;;;;4961090;28;20059;-77
2021/04/27 07:18:38;;;;;;;3.42;1.95;;;16.50;96.70;;;;;;4959437;28;20061;-77
2021/04/27 07:21:06;;;;;;;5.85;2.47;;;16.60;96.70;;;;;;4962836;28;20045;-76
2021/04/27 07:23:35;;;;;;;4.18;2.22;;;16.60;96.70;;;;;;4964606;28;20038;-77
2021/04/27 07:26:04;;;;;;;3.28;2.40;;;16.70;96.70;;;;;;4956703;28;20055;-77
2021/04/27 07:28:32;;;;;;;3.72;1.75;;;16.70;96.70;;;;;;4944129;28;20425;-77
2021/04/27 07:31:02;;;;;;;3.22;1.92;;;16.90;96.70;;;;;;4957487;28;20050;-77
2021/04/27 07:33:30;;;;;;;5.88;1.95;;;17.00;96.70;;;;;;4975551;28;20123;-77
2021/04/27 07:35:58;;;;;;;2.92;2.00;;;17.00;96.70;;;;;;4962542;28;20042;-77
2021/04/27 07:38:27;;;;;;;3.05;1.75;;;17.00;96.70;;;;;;4961390;28;20038;-77
2021/04/27 07:40:57;;;;;;;3.33;1.85;;;17.10;96.70;;;;;;4966532;28;20146;-77
2021/04/27 07:43:26;;;;;;;1.98;1.63;;;17.20;96.70;;;;;;4976454;28;20058;-76
2021/04/27 07:45:55;;;;;;;2.55;1.98;;;17.30;96.70;;;;;;4963007;28;20043;-76
2021/04/27 07:48:23;;;;;;;3.13;1.60;;;17.30;96.70;;;;;;4961447;28;20043;-77
2021/04/27 07:50:52;;;;;;;2.13;1.35;;;17.30;96.70;;;;;;4974227;28;20129;-77
2021/04/27 07:53:20;;;;;;;1.40;1.27;;;17.40;96.70;;;;;;4947253;28;20042;-77
2021/04/27 07:55:48;;;;;;;3.55;1.60;;;17.50;96.70;;;;;;4968369;28;20075;-77
2021/04/27 07:58:18;;;;;;;3.58;1.77;;;17.60;96.70;;;;;;4963119;28;20035;-77
2021/04/27 08:00:46;;;;;;;2.50;1.83;;;17.60;96.70;;;;;;4966826;28;20047;-77
2021/04/27 08:03:14;;;;;;;2.25;1.40;;;17.60;96.70;;;;;;4964809;28;20057;-77
2021/04/27 08:05:43;;;;;;;2.10;1.40;;;17.60;96.70;;;;;;4971385;28;20465;-77
2021/04/27 08:08:11;;;;;;;1.92;1.75;;;17.50;96.70;;;;;;4964013;28;20054;-78
2021/04/27 08:10:39;;;;;;;2.63;1.60;;;17.60;96.70;;;;;;4964737;28;20046;-77
2021/04/27 08:13:08;;;;;;;2.05;1.50;;;17.60;96.70;;;;;;4964965;28;20516;-77
2021/04/27 08:15:37;;;;;;;2.08;1.30;;;17.60;96.70;;;;;;4957030;28;20152;-78
2021/04/27 08:18:06;;;;;;;1.27;1.17;;;17.50;96.70;;;;;;4962947;28;20049;-77
2021/04/27 08:20:36;;;;;;;2.17;1.13;;;17.50;96.70;;;;;;4965839;28;20264;-77
2021/04/27 08:23:05;;;;;;;1.52;1.20;;;17.50;96.70;;;;;;4962937;28;20601;-78
2021/04/27 08:25:53;;;;;;;2.95;1.45;;;17.50;96.70;;;;;;4965480;28;20053;-77
2021/04/27 08:28:22;;;;;;;1.30;1.13;;;17.60;96.70;;;;;;4964506;28;20047;-77
2021/04/27 08:30:51;;;;;;;2.88;1.70;;;17.70;96.70;;;;;;4963560;28;20607;-77
2021/04/27 08:33:20;;;;;;;1.85;1.42;;;17.70;96.70;;;;;;4965023;28;20141;-78
2021/04/27 08:35:49;;;;;;;1.75;1.60;;;17.70;96.70;;;;;;4961938;28;20047;-78
2021/04/27 08:38:18;;;;;;;1.73;1.40;;;17.80;96.70;;;;;;4962356;28;20054;-78
2021/04/27 08:40:46;;;;;;;1.60;1.20;;;17.90;96.70;;;;;;4964259;28;20043;-78
2021/04/27 08:43:16;;;;;;;1.65;1.30;;;17.90;96.70;;;;;;4968564;28;20098;-79
2021/04/27 08:45:44;;;;;;;2.55;1.70;;;18.10;96.70;;;;;;4967160;28;20133;-79
2021/04/27 08:48:15;;;;;;;3.03;1.52;;;18.10;96.70;;;;;;4965247;28;20511;-77
2021/04/27 08:50:45;;;;;;;4.97;1.77;;;18.30;96.70;;;;;;4961917;28;20312;-78
2021/04/27 08:53:14;;;;;;;1.90;1.67;;;18.40;96.70;;;;;;4948119;28;20051;-78
2021/04/27 08:55:42;;;;;;;3.20;1.98;;;18.60;96.70;;;;;;4961528;28;20050;-78
2021/04/27 08:58:11;;;;;;;2.25;1.80;;;18.70;96.70;;;;;;4945068;28;20074;-78
2021/04/27 09:00:41;;;;;;;2.20;1.80;;;18.70;96.70;;;;;;4963578;28;20045;-78
2021/04/27 09:03:10;;;;;;;3.20;1.75;;;18.70;96.70;;;;;;4963671;28;20050;-78
2021/04/27 09:05:41;;;;;;;3.72;1.80;;;18.80;96.70;;;;;;4963673;28;20399;-78
2021/04/27 09:08:37;;;;;;;4.05;2.00;;;18.80;96.70;;;;;;4966146;28;20382;-78
2021/04/27 09:11:24;;;;;;;2.35;1.83;;;18.80;96.70;;;;;;4950668;28;20456;-77
2021/04/27 09:14:17;;;;;;;2.33;1.60;;;18.70;96.50;;;;;;4960196;28;20043;-77
2021/04/27 09:16:48;;;;;;;3.25;2.05;;;18.70;96.70;;;;;;4962259;28;20116;-77
2021/04/27 09:19:35;;;;;;;2.85;1.77;;;18.80;96.70;;;;;;4981717;28;20097;-77
2021/04/27 09:22:07;;;;;;;3.35;1.67;;;18.90;96.10;;;;;;4965332;28;20066;-77
2021/04/27 09:24:38;;;;;;;2.70;1.73;;;19.00;96.10;;;;;;4981905;28;20379;-77
2021/04/27 09:27:07;;;;;;;3.58;1.80;;;19.00;96.60;;;;;;4984591;28;20432;-77
2021/04/27 09:29:37;;;;;;;2.75;1.80;;;19.20;96.70;;;;;;4965712;28;20121;-77
2021/04/27 09:32:07;;;;;;;1.95;1.63;;;19.30;96.70;;;;;;4968908;28;20144;-78
2021/04/27 09:34:36;;;;;;;1.80;1.48;;;19.30;95.70;;;;;;4967020;28;20030;-78
2021/04/27 09:37:08;;;;;;;3.35;1.77;;;19.30;95.50;;;;;;4966163;28;20314;-78
2021/04/27 09:39:38;;;;;;;3.65;1.52;;;19.40;95.00;;;;;;4980901;28;20051;-78
2021/04/27 09:42:09;;;;;;;2.47;1.80;;;19.30;93.60;;;;;;4965856;28;20077;-78
2021/04/27 09:44:43;;;;;;;2.03;1.45;;;19.30;95.40;;;;;;4967654;28;20523;-79
2021/04/27 09:47:19;;;;;;;2.35;1.38;;;19.50;95.90;;;;;;4982157;28;20128;-78
2021/04/27 09:49:55;;;;;;;1.50;1.40;;;19.60;93.60;;;;;;4982411;28;20042;-79
2021/04/27 09:52:25;;;;;;;2.25;1.45;;;19.70;94.00;;;;;;4951529;28;20056;-79
2021/04/27 09:55:09;;;;;;;1.73;1.50;;;19.80;94.20;;;;;;4969806;28;20404;-78
2021/04/27 09:57:40;;;;;;;1.45;1.15;;;19.80;91.90;;;;;;4949495;28;20108;-79
2021/04/27 10:00:27;;;;;;;2.28;1.30;;;19.80;91.60;;;;;;4977371;28;20760;-78
2021/04/27 10:02:57;;;;;;;1.40;1.27;;;19.90;91.30;;;;;;4959322;28;20049;-79
2021/04/27 10:05:26;;;;;;;2.35;1.27;;;20.00;91.10;;;;;;4964992;28;20074;-79
2021/04/27 10:07:57;;;;;;;2.75;1.30;;;20.10;89.90;;;;;;4964131;28;20526;-79
2021/04/27 10:10:27;;;;;;;1.73;1.30;;;20.00;89.90;;;;;;4970486;28;20318;-79
2021/04/27 10:12:58;;;;;;;3.38;1.20;;;20.20;91.00;;;;;;4979973;28;20455;-79
2021/04/27 10:15:27;;;;;;;3.10;1.75;;;20.40;90.60;;;;;;4965060;28;20116;-79
2021/04/27 10:17:56;;;;;;;2.65;1.30;;;20.60;90.80;;;;;;4965661;28;20095;-79
2021/04/27 10:20:24;;;;;;;3.25;1.40;;;20.70;90.00;;;;;;4965295;28;20042;-79
2021/04/27 10:22:55;;;;;;;2.53;1.48;;;20.80;89.50;;;;;;4964978;28;20075;-78
2021/04/27 10:25:24;;;;;;;2.60;1.58;;;20.90;90.10;;;;;;4968243;28;20211;-79
2021/04/27 10:27:55;;;;;;;1.42;1.00;;;21.10;88.60;;;;;;4982979;28;20050;-79
2021/04/27 10:30:32;;;;;;;1.90;1.38;;;21.20;88.10;;;;;;4967115;28;20088;-79
2021/04/27 10:33:17;;;;;;;2.60;1.30;;;21.10;87.70;;;;;;4966726;28;20068;-79
2021/04/27 10:36:10;;;;;;;1.63;1.25;;;21.00;87.90;;;;;;4981240;28;20034;-79
2021/04/27 10:38:49;;;;;;;2.33;1.67;;;21.00;88.10;;;;;;4964827;28;20042;-79
2021/04/27 10:41:22;;;;;;;1.92;1.30;;;21.10;87.90;;;;;;4965226;28;20141;-79
2021/04/27 10:43:59;;;;;;;2.17;1.38;;;21.20;87.10;;;;;;4966452;28;20058;-79
2021/04/27 10:46:59;;;;;;;1.10;0.98;;;21.10;87.10;;;;;;4975808;28;20034;-79
2021/04/27 10:49:30;;;;;;;2.45;1.38;;;21.00;87.50;;;;;;4979490;28;20046;-79
2021/04/27 10:52:00;;;;;;;2.35;1.10;;;21.00;87.90;;;;;;4978065;28;20042;-79
2021/04/27 10:54:31;;;;;;;1.92;1.10;;;21.10;88.50;;;;;;4981901;28;20524;-79
2021/04/27 10:57:15;;;;;;;2.63;1.60;;;21.00;86.90;;;;;;4964456;28;20042;-79
2021/04/27 10:59:55;;;;;;;1.25;1.00;;;20.80;87.10;;;;;;4967019;28;20125;-79
2021/04/27 11:02:26;;;;;;;1.35;1.00;;;20.70;87.90;;;;;;4960713;28;20054;-78
2021/04/27 11:04:58;;;;;;;1.67;1.20;;;20.80;87.00;;;;;;4964001;28;20136;-77
2021/04/27 11:07:38;;;;;;;1.48;1.23;;;20.70;87.10;;;;;;4978999;28;20124;-78
2021/04/27 11:10:31;;;;;;;3.38;1.35;;;20.70;86.80;;;;;;4961692;28;20047;-77
2021/04/27 11:13:08;;;;;;;3.08;1.48;;;20.50;86.30;;;;;;4964719;28;20049;-76
2021/04/27 11:15:38;;;;;;;1.67;0.93;;;20.40;87.30;;;;;;4981259;28;20058;-77
2021/04/27 11:18:09;;;;;;;1.05;0.95;;;20.30;87.50;;;;;;4968938;28;20038;-76
2021/04/27 11:20:56;;;;;;;1.65;1.13;;;20.30;86.90;;;;;;4964040;28;20058;-77
2021/04/27 11:23:36;;;;;;;2.33;1.55;;;20.30;87.30;;;;;;4964780;28;20035;-77
2021/04/27 11:26:44;;;;;;;1.65;1.30;;;20.30;88.00;;;;;;4962390;28;20112;-77
2021/04/27 11:29:19;;;;;;;2.58;1.48;;;20.30;88.20;;;;;;4978078;28;20053;-76
2021/04/27 11:32:07;;;;;;;2.45;1.13;;;20.30;88.30;;;;;;4966699;28;20042;-77
2021/04/27 11:34:58;;;;;;;1.80;1.40;;;20.20;88.60;;;;;;4966547;28;20144;-77
2021/04/27 11:37:30;;;;;;;3.45;1.45;;;20.20;87.40;;;;;;4974645;28;20842;-78
2021/04/27 11:40:00;;;;;;;2.50;1.35;;;20.00;87.60;;;;;;4983386;28;20518;-80
2021/04/27 11:42:31;;;;;;;3.50;1.50;;;20.00;88.70;;;;;;4953299;28;20403;-78
2021/04/27 11:45:03;;;;;;;2.15;1.30;;;20.10;88.60;;;;;;4965308;28;20046;-78
2021/04/27 11:47:36;;;;;;;3.05;1.48;;;20.00;88.60;;;;;;4967760;28;20035;-77
2021/04/27 11:50:08;;;;;;;1.40;1.27;;;20.00;88.80;;;;;;4968327;28;20039;-77
2021/04/27 11:52:51;;;;;;;1.92;1.13;;;19.90;88.70;;;;;;4967624;28;20058;-77
2021/04/27 11:55:31;;;;;;;6.65;1.33;;;19.90;89.70;;;;;;4977848;28;20423;-77
2021/04/27 11:58:03;;;;;;;4.57;2.80;;;19.80;89.60;;;;;;4982736;28;20126;-77
2021/04/27 12:00:35;;;;;;;4.25;3.33;;;19.60;92.80;;;;;;4972389;28;20046;-78
2021/04/27 12:03:18;;;;;;;5.32;3.72;;;19.60;94.90;;;;;;4983696;28;20100;-82
2021/04/27 12:05:48;;;;;;;5.40;3.20;;;19.60;95.30;;;;;;4988127;28;20049;-78
2021/04/27 12:08:22;;;;;;;5.20;3.58;;;19.50;95.50;;;;;;4984762;28;20126;-78
2021/04/27 12:11:10;;;;;;;5.38;3.80;;;19.20;95.70;;;;;;4966520;28;20050;-78
2021/04/27 12:13:43;;;;;;;6.35;3.47;;;19.20;96.10;;;;;;4983800;28;20062;-78
2021/04/27 12:16:13;;;;;;;6.70;3.47;;;19.00;96.30;;;;;;4967548;28;20141;-78
2021/04/27 12:18:53;;;;;;;5.18;3.33;;;19.00;96.60;;;;;;4959889;28;20390;-76
2021/04/27 12:21:33;;;;;;;5.25;3.40;;;19.00;96.30;;;;;;4966319;28;20125;-79
2021/04/27 12:24:13;;;;;;;5.35;3.70;;;18.90;96.70;;;;;;4950272;28;20051;-79
2021/04/27 12:26:45;;;;;;;4.65;3.22;;;18.90;96.70;;;;;;4963168;28;20484;-79
2021/04/27 12:29:15;;;;;;;4.78;2.72;;;18.90;96.70;;;;;;4965332;28;20157;-78
2021/04/27 12:31:44;;;;;;;4.47;3.10;;;19.00;96.70;;;;;;4968916;28;20065;-79
2021/04/27 12:34:15;;;;;;;5.30;3.33;;;19.00;96.70;;;;;;4964425;28;20038;-78
2021/04/27 12:36:45;;;;;;;4.90;3.70;;;19.10;96.70;;;;;;4965947;28;20046;-77
2021/04/27 12:39:30;;;;;;;4.05;3.28;;;19.10;96.70;;;;;;4976258;28;20146;-78
2021/04/27 12:42:02;;;;;;;4.53;3.45;;;19.10;96.70;;;;;;4956974;28;20051;-78
2021/04/27 12:44:34;;;;;;;6.10;3.25;;;19.10;96.70;;;;;;4966813;28;20083;-78
2021/04/27 12:47:15;;;;;;;5.38;3.60;;;19.10;96.70;;;;;;4949891;28;20139;-78
2021/04/27 12:49:56;;;;;;;5.85;3.47;;;19.10;96.70;;;;;;4960720;28;20055;-78
2021/04/27 12:52:24;;;;;;;7.55;3.95;;;18.90;96.70;;;;;;4960724;28;20050;-78
2021/04/27 12:54:57;;;;;;;5.90;3.53;;;19.00;96.70;;;;;;4966242;28;20493;-78
2021/04/27 12:57:26;;;;;;;3.80;2.95;;;19.10;96.70;;;;;;4965214;28;20137;-78
2021/04/27 12:59:57;;;;;;;5.45;3.60;;;19.10;96.70;;;;;;4962745;28;20043;-78
2021/04/27 13:02:26;;;;;;;4.97;2.83;;;19.20;96.70;;;;;;4962690;28;20117;-78
2021/04/27 13:04:55;;;;;;;5.15;3.20;;;19.30;96.70;;;;;;4962886;28;20130;-77
2021/04/27 13:07:32;;;;;;;4.88;3.20;;;19.40;96.70;;;;;;4966517;28;20042;-78
2021/04/27 13:10:03;;;;;;;7.05;3.42;;;19.50;96.70;;;;;;4961579;28;20484;-78
2021/04/27 13:12:32;;;;;;;5.38;3.15;;;19.80;96.40;;;;;;4945350;28;20127;-78